Time;durP1;ratioP1;P1;durP2;ratioP2;P2;SDS_P1;SDS_P2;PMS_P1;PMS_P2;Temp;Humidity;BMP_temperature;BMP_pressure;BME280_temperature;BME280_humidity;BME280_pressure;Samples;Min_cycle;Max_cycle;Signal;HPM_P1;HPM_P2
2022/10/18 00:02:12;;;;;;;27.10;13.93;;;20.90;85.00;;;;;;7368731;19;20023;-78
2022/10/18 00:04:42;;;;;;;23.92;12.75;;;20.90;84.90;;;;;;7369034;19;20014;-78
2022/10/18 00:07:11;;;;;;;23.83;12.48;;;20.90;84.90;;;;;;7369639;19;20011;-78
2022/10/18 00:09:41;;;;;;;22.15;11.15;;;20.80;84.90;;;;;;7368116;19;20122;-78
2022/10/18 00:12:10;;;;;;;21.90;11.32;;;20.90;84.90;;;;;;7366938;19;20019;-78
2022/10/18 00:14:40;;;;;;;16.73;10.80;;;20.80;84.80;;;;;;7394417;19;20021;-78
2022/10/18 00:17:12;;;;;;;21.35;12.10;;;20.80;84.70;;;;;;7373353;19;20125;-78
2022/10/18 00:19:43;;;;;;;24.00;12.15;;;20.80;84.80;;;;;;7376143;19;20049;-79
2022/10/18 00:22:13;;;;;;;24.08;12.38;;;20.90;84.80;;;;;;7375330;19;20014;-79
2022/10/18 00:24:42;;;;;;;21.45;11.70;;;20.80;84.70;;;;;;7372197;19;20325;-78
2022/10/18 00:27:12;;;;;;;22.65;12.05;;;20.80;84.70;;;;;;7372585;19;20018;-78
2022/10/18 00:29:41;;;;;;;19.88;11.40;;;20.80;84.70;;;;;;7391650;19;20018;-79
2022/10/18 00:32:14;;;;;;;24.67;11.82;;;20.80;84.70;;;;;;7372312;19;20022;-78
2022/10/18 00:34:44;;;;;;;21.45;12.65;;;20.80;84.80;;;;;;7373721;19;20038;-78
2022/10/18 00:37:14;;;;;;;25.05;12.73;;;20.80;84.70;;;;;;7372090;19;20019;-78
2022/10/18 00:39:43;;;;;;;20.80;11.18;;;20.80;84.70;;;;;;7373147;19;20017;-78
2022/10/18 00:42:18;;;;;;;22.08;11.68;;;20.80;84.60;;;;;;7371056;19;20346;-78
2022/10/18 00:45:11;;;;;;;23.70;12.35;;;20.80;84.60;;;;;;7393813;19;20044;-78
2022/10/18 00:47:45;;;;;;;21.40;11.27;;;20.80;84.80;;;;;;7372179;19;20085;-78
2022/10/18 00:50:15;;;;;;;24.00;13.45;;;20.80;84.70;;;;;;7371253;19;20082;-78
2022/10/18 00:52:49;;;;;;;21.77;12.73;;;20.80;84.70;;;;;;7370160;19;20069;-78
2022/10/18 00:55:19;;;;;;;26.92;12.10;;;20.80;84.60;;;;;;7372365;19;20035;-78
2022/10/18 00:57:49;;;;;;;23.80;12.23;;;20.80;85.30;;;;;;7372738;19;20022;-78
2022/10/18 01:00:19;;;;;;;28.10;13.15;;;20.80;84.50;;;;;;7371712;19;20022;-78
2022/10/18 01:02:51;;;;;;;22.30;11.57;;;20.80;84.40;;;;;;7392273;19;20023;-78
2022/10/18 01:05:22;;;;;;;26.48;11.40;;;20.80;84.60;;;;;;7370802;19;20022;-78
2022/10/18 01:08:18;;;;;;;30.40;13.38;;;20.80;84.50;;;;;;7370011;19;20014;-78
2022/10/18 01:10:56;;;;;;;28.05;11.48;;;20.70;84.70;;;;;;7373081;19;20014;-78
2022/10/18 01:13:37;;;;;;;23.20;11.85;;;20.70;84.40;;;;;;7371824;19;20014;-78
2022/10/18 01:16:14;;;;;;;25.02;13.25;;;20.70;84.50;;;;;;7371563;19;20403;-78
2022/10/18 01:18:51;;;;;;;33.63;12.15;;;20.70;85.30;;;;;;7372742;19;20019;-78
2022/10/18 01:21:32;;;;;;;20.27;11.98;;;20.70;84.50;;;;;;7368887;19;20000;-78
2022/10/18 01:24:27;;;;;;;25.38;12.10;;;20.70;84.60;;;;;;7381345;19;20018;-78
2022/10/18 01:27:32;;;;;;;23.90;12.63;;;20.70;84.70;;;;;;7388665;19;20493;-78
2022/10/18 01:30:34;;;;;;;31.75;12.90;;;20.70;84.70;;;;;;7267715;19;2004455;-79
2022/10/18 01:33:09;;;;;;;36.33;14.07;;;20.70;84.50;;;;;;7367615;19;20026;-79
2022/10/18 01:35:44;;;;;;;19.35;11.93;;;20.70;84.60;;;;;;7389219;19;20026;-78
2022/10/18 01:38:17;;;;;;;29.38;13.63;;;20.60;84.50;;;;;;7368326;19;20019;-79
2022/10/18 01:40:50;;;;;;;34.40;13.13;;;20.70;84.50;;;;;;7366175;19;20022;-79
2022/10/18 01:43:22;;;;;;;23.45;11.93;;;20.70;84.50;;;;;;7368026;19;20023;-78
2022/10/18 01:45:56;;;;;;;22.60;11.98;;;20.70;84.40;;;;;;7368487;19;20030;-78
2022/10/18 01:48:26;;;;;;;27.63;12.30;;;20.70;84.50;;;;;;7365500;19;20017;-78
2022/10/18 01:50:56;;;;;;;28.23;11.88;;;20.70;84.50;;;;;;7387670;19;20014;-78
2022/10/18 01:53:32;;;;;;;26.92;11.70;;;20.70;84.60;;;;;;7369861;19;20060;-78
2022/10/18 01:56:17;;;;;;;25.40;11.63;;;20.70;84.60;;;;;;7370157;19;20015;-78
2022/10/18 01:58:56;;;;;;;22.95;12.30;;;20.70;84.60;;;;;;7368905;19;20019;-79
2022/10/18 02:01:36;;;;;;;26.85;11.95;;;20.70;84.50;;;;;;7369615;19;20415;-78
2022/10/18 02:04:14;;;;;;;28.25;12.13;;;20.70;84.60;;;;;;7369083;19;20082;-79
2022/10/18 02:06:47;;;;;;;25.83;12.60;;;20.70;84.40;;;;;;7370908;19;20473;-78
2022/10/18 02:09:24;;;;;;;27.08;13.43;;;20.70;84.40;;;;;;7369494;19;20022;-78
2022/10/18 02:11:57;;;;;;;26.25;12.50;;;20.60;84.20;;;;;;7393161;19;20022;-79
2022/10/18 02:14:28;;;;;;;26.95;13.38;;;20.60;84.10;;;;;;7371399;19;20025;-78
2022/10/18 02:17:05;;;;;;;26.25;13.15;;;20.70;84.10;;;;;;7370084;19;20029;-78
2022/10/18 02:19:39;;;;;;;29.88;14.15;;;20.60;84.70;;;;;;7370031;19;20452;-78
2022/10/18 02:22:10;;;;;;;47.00;14.70;;;20.50;84.30;;;;;;7372695;19;20015;-78
2022/10/18 02:24:44;;;;;;;42.35;13.48;;;20.50;83.90;;;;;;7367509;19;20014;-78
2022/10/18 02:27:15;;;;;;;39.90;13.30;;;20.40;83.80;;;;;;7370836;19;20015;-78
2022/10/18 02:29:45;;;;;;;31.98;12.80;;;20.40;84.00;;;;;;7393096;19;20022;-78
2022/10/18 02:32:22;;;;;;;30.27;13.00;;;20.30;84.10;;;;;;7370537;19;20038;-78
2022/10/18 02:34:59;;;;;;;38.25;13.40;;;20.30;84.30;;;;;;7368704;19;20070;-78
2022/10/18 02:37:32;;;;;;;38.75;13.15;;;20.30;84.20;;;;;;7366998;19;20453;-78
2022/10/18 02:40:02;;;;;;;35.00;13.43;;;20.30;84.20;;;;;;7374653;19;20026;-78
2022/10/18 02:42:37;;;;;;;123.40;20.48;;;20.30;84.20;;;;;;7377303;19;20359;-78
2022/10/18 02:45:08;;;;;;;69.43;16.60;;;20.30;84.10;;;;;;7372882;19;20414;-77
2022/10/18 02:47:40;;;;;;;32.63;13.73;;;20.30;83.90;;;;;;7391761;19;20033;-78
2022/10/18 02:50:10;;;;;;;28.88;12.45;;;20.30;83.90;;;;;;7368837;19;20018;-78
2022/10/18 02:52:40;;;;;;;21.50;11.40;;;20.30;83.90;;;;;;7369324;19;20018;-78
2022/10/18 02:55:11;;;;;;;25.10;11.85;;;20.20;83.80;;;;;;7370718;19;20035;-78
2022/10/18 02:57:41;;;;;;;31.73;10.20;;;20.20;83.80;;;;;;7367580;19;20018;-79
2022/10/18 03:00:12;;;;;;;32.72;10.38;;;20.20;84.30;;;;;;7365758;19;20526;-78
2022/10/18 03:02:44;;;;;;;26.63;11.30;;;20.20;83.90;;;;;;7389512;19;20552;-79
2022/10/18 03:05:14;;;;;;;25.80;10.80;;;20.20;83.90;;;;;;7368650;19;20437;-79
2022/10/18 03:07:43;;;;;;;35.05;10.73;;;20.20;83.90;;;;;;7369273;19;20017;-79
2022/10/18 03:10:13;;;;;;;44.83;13.48;;;20.20;83.80;;;;;;7370288;19;20022;-79
2022/10/18 03:12:42;;;;;;;58.47;12.70;;;20.20;83.70;;;;;;7367236;19;20028;-78
2022/10/18 03:15:13;;;;;;;86.55;14.27;;;20.30;83.80;;;;;;7366999;19;20014;-78
2022/10/18 03:17:46;;;;;;;134.90;16.30;;;20.20;83.60;;;;;;7390290;19;20493;-79
2022/10/18 03:20:16;;;;;;;96.13;16.75;;;20.20;83.30;;;;;;7367725;19;20022;-79
2022/10/18 03:22:46;;;;;;;122.28;17.52;;;20.20;83.20;;;;;;7365464;19;20022;-79
2022/10/18 03:25:15;;;;;;;127.50;19.20;;;20.20;84.20;;;;;;7368525;19;20018;-79
2022/10/18 03:27:45;;;;;;;308.52;21.88;;;20.20;83.40;;;;;;7363841;19;20015;-78
2022/10/18 03:30:14;;;;;;;200.55;21.00;;;20.20;83.30;;;;;;7367878;19;20070;-78
2022/10/18 03:32:46;;;;;;;88.88;17.63;;;20.20;83.30;;;;;;7388866;19;20034;-78
2022/10/18 03:35:16;;;;;;;69.10;15.98;;;20.20;83.60;;;;;;7366978;19;20524;-79
2022/10/18 03:37:45;;;;;;;200.60;19.38;;;20.20;83.70;;;;;;7368918;19;20018;-80
2022/10/18 03:40:15;;;;;;;151.75;15.88;;;20.20;83.60;;;;;;7366364;19;20014;-79
2022/10/18 03:42:44;;;;;;;63.10;13.00;;;20.20;83.50;;;;;;7367650;19;20075;-78
2022/10/18 03:45:14;;;;;;;144.10;16.70;;;20.10;83.60;;;;;;7368749;19;20383;-78
2022/10/18 03:47:46;;;;;;;94.53;16.05;;;20.20;83.40;;;;;;7390487;19;20015;-79
2022/10/18 03:50:16;;;;;;;95.30;15.02;;;20.10;83.40;;;;;;7373831;19;20014;-79
2022/10/18 03:52:45;;;;;;;211.95;19.23;;;20.10;83.50;;;;;;7375782;19;20010;-79
2022/10/18 03:55:15;;;;;;;113.97;17.67;;;20.10;83.50;;;;;;7375096;19;20377;-79
2022/10/18 03:57:45;;;;;;;157.35;16.85;;;20.10;83.30;;;;;;7374240;19;20064;-78
2022/10/18 04:00:16;;;;;;;88.10;14.32;;;20.10;83.60;;;;;;7373110;19;20341;-78
2022/10/18 04:02:49;;;;;;;49.17;12.07;;;20.10;83.50;;;;;;7395055;19;20025;-78
2022/10/18 04:05:19;;;;;;;41.20;12.25;;;20.10;83.60;;;;;;7375985;19;20272;-79
2022/10/18 04:07:49;;;;;;;58.13;11.40;;;20.10;83.50;;;;;;7373509;19;20400;-79
2022/10/18 04:10:19;;;;;;;64.50;10.57;;;20.10;83.20;;;;;;7376895;19;20042;-79
2022/10/18 04:12:48;;;;;;;55.42;10.00;;;20.10;83.10;;;;;;7373764;19;20022;-79
2022/10/18 04:15:18;;;;;;;44.95;10.20;;;20.10;83.10;;;;;;7373764;19;20025;-79
2022/10/18 04:17:51;;;;;;;42.50;10.13;;;20.10;83.00;;;;;;7395582;19;20010;-79
2022/10/18 04:20:21;;;;;;;33.53;9.88;;;20.10;82.90;;;;;;7376344;19;20023;-79
2022/10/18 04:22:51;;;;;;;31.40;9.55;;;20.10;82.60;;;;;;7374350;19;20018;-78
2022/10/18 04:25:21;;;;;;;27.27;10.13;;;20.20;82.60;;;;;;7373738;19;20018;-79
2022/10/18 04:27:51;;;;;;;26.23;11.02;;;20.10;82.50;;;;;;7372481;19;20018;-79
2022/10/18 04:30:21;;;;;;;31.02;11.63;;;20.20;82.60;;;;;;7370652;19;20029;-79
2022/10/18 04:32:54;;;;;;;53.80;11.60;;;20.20;82.40;;;;;;7394812;19;20090;-79
2022/10/18 04:35:24;;;;;;;79.93;13.07;;;20.20;82.40;;;;;;7373113;19;20023;-79
2022/10/18 04:37:54;;;;;;;41.03;13.00;;;20.20;82.40;;;;;;7373696;19;20010;-80
2022/10/18 04:40:24;;;;;;;41.13;14.30;;;20.20;82.50;;;;;;7367178;19;20019;-79
2022/10/18 04:42:55;;;;;;;40.88;14.68;;;20.20;82.50;;;;;;7370820;19;20023;-79
2022/10/18 04:45:25;;;;;;;49.90;15.50;;;20.20;82.50;;;;;;7371795;19;20014;-79
2022/10/18 04:47:58;;;;;;;70.95;17.35;;;20.20;82.50;;;;;;7393499;19;20014;-79
2022/10/18 04:50:28;;;;;;;103.55;18.25;;;20.20;82.50;;;;;;7374046;19;20011;-79
2022/10/18 04:52:58;;;;;;;72.82;17.33;;;20.20;82.50;;;;;;7373445;19;20054;-79
2022/10/18 04:55:28;;;;;;;65.70;16.20;;;20.20;82.60;;;;;;7371632;19;20445;-80
2022/10/18 04:57:58;;;;;;;75.63;16.67;;;20.20;82.60;;;;;;7374281;19;20021;-80
2022/10/18 05:00:29;;;;;;;54.95;14.82;;;20.20;82.60;;;;;;7372363;19;20310;-79
2022/10/18 05:03:02;;;;;;;66.18;17.70;;;20.20;82.50;;;;;;7393885;19;20018;-79
2022/10/18 05:05:32;;;;;;;44.08;14.82;;;20.20;82.60;;;;;;7373798;19;20014;-80
2022/10/18 05:08:01;;;;;;;44.35;15.77;;;20.20;82.60;;;;;;7370392;19;20025;-80
2022/10/18 05:10:32;;;;;;;50.45;14.98;;;20.20;82.60;;;;;;7368847;19;20037;-80
2022/10/18 05:13:02;;;;;;;53.70;15.40;;;20.20;82.50;;;;;;7373115;19;20035;-80
2022/10/18 05:15:31;;;;;;;46.65;15.95;;;20.20;82.50;;;;;;7370253;19;20327;-79
2022/10/18 05:18:04;;;;;;;66.53;14.95;;;20.20;82.50;;;;;;7395224;19;20018;-79
2022/10/18 05:20:34;;;;;;;81.50;17.00;;;20.20;82.50;;;;;;7373984;19;20034;-79
2022/10/18 05:23:04;;;;;;;68.95;17.88;;;20.20;82.40;;;;;;7372423;19;20032;-80
2022/10/18 05:25:34;;;;;;;55.75;15.90;;;20.20;82.50;;;;;;7372625;19;20010;-79
2022/10/18 05:28:04;;;;;;;51.67;15.95;;;20.20;82.60;;;;;;7371679;19;20014;-79
2022/10/18 05:30:35;;;;;;;69.30;16.08;;;20.20;82.60;;;;;;7371104;19;20014;-79
2022/10/18 05:33:08;;;;;;;83.90;16.95;;;20.20;82.60;;;;;;7372031;19;20027;-78
2022/10/18 05:35:38;;;;;;;60.88;17.23;;;20.20;82.70;;;;;;7394227;19;20014;-79
2022/10/18 05:38:09;;;;;;;65.50;18.65;;;20.20;82.70;;;;;;7372856;19;20026;-79
2022/10/18 05:40:41;;;;;;;53.17;16.83;;;20.20;82.70;;;;;;7371392;19;20014;-79
2022/10/18 05:43:10;;;;;;;48.95;15.95;;;20.20;82.70;;;;;;7373644;19;20580;-79
2022/10/18 05:45:40;;;;;;;59.65;17.58;;;20.20;82.70;;;;;;7368832;19;20321;-79
2022/10/18 05:48:13;;;;;;;50.33;17.20;;;20.20;82.70;;;;;;7371741;19;20296;-78
2022/10/18 05:50:43;;;;;;;52.60;17.20;;;20.20;82.90;;;;;;7393690;19;20014;-78
2022/10/18 05:53:13;;;;;;;54.72;18.15;;;20.20;82.90;;;;;;7373745;19;20035;-78
2022/10/18 05:55:43;;;;;;;70.75;19.52;;;20.30;82.80;;;;;;7373733;19;20026;-78
2022/10/18 05:58:13;;;;;;;69.95;21.88;;;20.30;82.70;;;;;;7373557;19;20011;-78
2022/10/18 06:00:43;;;;;;;58.63;19.88;;;20.30;82.60;;;;;;7374606;19;20014;-79
2022/10/18 06:03:16;;;;;;;53.63;18.75;;;20.20;82.70;;;;;;7373397;19;20014;-78
2022/10/18 06:05:46;;;;;;;49.40;16.77;;;20.20;82.70;;;;;;7395115;19;20035;-79
2022/10/18 06:08:16;;;;;;;48.53;15.73;;;20.20;82.70;;;;;;7375374;19;20328;-78
2022/10/18 06:10:46;;;;;;;49.47;15.48;;;20.20;82.60;;;;;;7372551;19;20110;-79
2022/10/18 06:13:16;;;;;;;50.15;15.48;;;20.20;82.70;;;;;;7370004;19;20093;-79
2022/10/18 06:15:45;;;;;;;39.72;14.98;;;20.20;82.60;;;;;;7371666;19;20011;-79
2022/10/18 06:18:18;;;;;;;40.83;13.73;;;20.20;82.70;;;;;;7372307;19;20018;-79
2022/10/18 06:20:48;;;;;;;45.05;13.77;;;20.20;82.80;;;;;;7393657;19;20029;-79
2022/10/18 06:23:17;;;;;;;41.30;14.13;;;20.20;82.70;;;;;;7374714;19;20017;-79
2022/10/18 06:25:47;;;;;;;42.03;15.55;;;20.10;82.60;;;;;;7391710;19;20014;-80
2022/10/18 06:28:16;;;;;;;44.72;16.35;;;20.20;82.70;;;;;;7389397;19;20022;-79
2022/10/18 06:30:47;;;;;;;52.35;16.77;;;20.20;82.70;;;;;;7375068;19;20016;-80
2022/10/18 06:33:20;;;;;;;48.90;17.57;;;20.20;82.60;;;;;;7374709;19;20033;-79
2022/10/18 06:35:58;;;;;;;63.47;20.33;;;20.20;82.60;;;;;;7394688;19;20278;-79
2022/10/18 06:38:28;;;;;;;53.55;17.48;;;20.20;83.40;;;;;;7373872;19;20022;-80
2022/10/18 06:41:00;;;;;;;71.55;20.48;;;20.20;82.60;;;;;;7376038;19;20007;-79
2022/10/18 06:43:30;;;;;;;68.35;20.83;;;20.20;82.60;;;;;;7372198;19;20022;-79
2022/10/18 06:46:00;;;;;;;59.25;19.77;;;20.20;82.40;;;;;;7371822;19;20079;-79
2022/10/18 06:48:33;;;;;;;55.10;19.63;;;20.20;82.60;;;;;;7374832;19;20014;-79
2022/10/18 06:51:06;;;;;;;55.95;20.42;;;20.20;82.60;;;;;;7374569;19;20481;-79
2022/10/18 06:53:37;;;;;;;60.65;19.65;;;20.30;82.70;;;;;;7393944;19;20018;-80
2022/10/18 06:56:09;;;;;;;70.15;20.77;;;20.30;82.90;;;;;;7371725;19;20027;-79
2022/10/18 06:59:16;;;;;;;59.10;19.63;;;20.30;82.90;;;;;;7372550;19;20039;-80
2022/10/18 07:01:54;;;;;;;55.08;18.25;;;20.30;83.10;;;;;;7373062;19;20014;-80
2022/10/18 07:04:33;;;;;;;51.95;17.08;;;20.40;82.90;;;;;;7358612;19;20007;-82
2022/10/18 07:07:02;;;;;;;60.50;18.63;;;20.30;82.90;;;;;;7366543;19;20021;-80
2022/10/18 07:09:30;;;;;;;57.95;17.92;;;20.40;82.80;;;;;;7364355;19;20011;-79
2022/10/18 07:11:59;;;;;;;58.55;19.38;;;20.40;82.80;;;;;;7388386;19;20018;-80
2022/10/18 07:14:28;;;;;;;66.43;20.35;;;20.40;82.80;;;;;;7367907;19;20018;-81
2022/10/18 07:16:57;;;;;;;67.40;20.73;;;20.40;82.90;;;;;;7370407;19;20014;-80
2022/10/18 07:19:28;;;;;;;66.07;21.73;;;20.40;82.70;;;;;;7366830;19;20065;-80
2022/10/18 07:21:56;;;;;;;54.72;19.45;;;20.40;82.60;;;;;;7370681;19;20011;-80
2022/10/18 07:24:25;;;;;;;52.50;20.00;;;20.50;82.50;;;;;;7367303;19;20025;-79
2022/10/18 07:26:54;;;;;;;46.22;18.52;;;20.50;82.50;;;;;;7392972;19;20022;-79
2022/10/18 07:29:22;;;;;;;46.60;18.65;;;20.50;82.60;;;;;;7369447;19;20078;-79
2022/10/18 07:31:51;;;;;;;52.88;20.05;;;20.50;82.70;;;;;;7371847;19;20425;-79
2022/10/18 07:34:20;;;;;;;53.80;18.70;;;20.50;82.70;;;;;;7371255;19;20389;-80
2022/10/18 07:36:51;;;;;;;49.28;18.35;;;20.60;82.60;;;;;;7373077;19;20110;-78
2022/10/18 07:39:20;;;;;;;49.33;18.90;;;20.60;82.70;;;;;;7369379;19;20085;-80
2022/10/18 07:41:48;;;;;;;50.20;19.10;;;20.70;82.60;;;;;;7389562;19;20040;-80
2022/10/18 07:44:17;;;;;;;49.60;19.08;;;20.70;82.60;;;;;;7367640;19;20094;-80
2022/10/18 07:46:46;;;;;;;46.05;18.42;;;20.70;82.50;;;;;;7369376;19;20021;-81
2022/10/18 07:49:14;;;;;;;49.42;20.48;;;20.70;82.50;;;;;;7367892;19;20052;-84
2022/10/18 07:51:43;;;;;;;45.45;19.88;;;20.70;82.50;;;;;;7371330;19;20110;-79
2022/10/18 07:54:14;;;;;;;42.65;18.10;;;20.80;82.60;;;;;;7368593;19;20483;-79
2022/10/18 07:56:44;;;;;;;43.15;18.38;;;20.80;82.60;;;;;;7390897;19;20525;-80
2022/10/18 07:59:13;;;;;;;42.83;18.25;;;20.90;82.60;;;;;;7378555;19;20094;-81
2022/10/18 08:01:42;;;;;;;38.50;17.15;;;20.90;82.50;;;;;;7385570;19;20074;-83
2022/10/18 08:04:10;;;;;;;42.20;17.95;;;20.90;82.40;;;;;;7382629;19;20101;-84
2022/10/18 08:06:39;;;;;;;38.10;17.85;;;21.00;82.40;;;;;;7371267;19;20019;-82
2022/10/18 08:09:08;;;;;;;39.35;16.73;;;21.00;82.40;;;;;;7371157;19;20023;-83
2022/10/18 08:11:40;;;;;;;32.55;16.23;;;21.00;82.10;;;;;;7393583;19;20017;-83
2022/10/18 08:14:08;;;;;;;32.88;17.08;;;21.00;82.10;;;;;;7371428;19;20025;-83
2022/10/18 08:16:37;;;;;;;38.60;17.02;;;21.00;82.00;;;;;;7371575;19;20081;-82
2022/10/18 08:19:06;;;;;;;41.15;17.17;;;21.10;82.10;;;;;;7369232;19;20030;-81
2022/10/18 08:21:34;;;;;;;48.20;18.42;;;21.10;82.10;;;;;;7370264;19;20383;-82
2022/10/18 08:24:03;;;;;;;36.45;16.10;;;21.10;82.00;;;;;;7367514;19;20449;-81
2022/10/18 08:26:32;;;;;;;27.65;13.85;;;21.10;81.90;;;;;;7391534;19;20326;-83
2022/10/18 08:29:03;;;;;;;21.55;10.35;;;21.10;81.90;;;;;;7370684;19;20013;-82
2022/10/18 08:31:32;;;;;;;19.30;10.02;;;21.10;81.80;;;;;;7372191;19;20023;-83
2022/10/18 08:34:00;;;;;;;19.95;10.45;;;21.10;81.60;;;;;;7372978;19;20006;-82
2022/10/18 08:36:29;;;;;;;21.05;11.43;;;21.10;81.30;;;;;;7376309;19;20053;-84
2022/10/18 08:38:58;;;;;;;21.10;10.63;;;21.10;81.20;;;;;;7403220;19;20010;-84
2022/10/18 08:41:45;;;;;;;20.02;10.40;;;21.20;81.20;;;;;;7376607;19;20017;-84
2022/10/18 08:44:21;;;;;;;13.48;8.00;;;21.10;81.00;;;;;;7375054;19;20029;-81
2022/10/18 08:49:29;;;;;;;21.15;9.95;;;21.20;80.80;;;;;;7333416;19;20375;-82
2022/10/18 08:51:59;;;;;;;18.60;8.73;;;21.20;81.10;;;;;;7378980;19;20011;-82
2022/10/18 08:54:36;;;;;;;17.42;9.40;;;21.30;80.60;;;;;;7378909;19;20081;-81
2022/10/18 08:57:12;;;;;;;15.68;9.30;;;21.20;80.70;;;;;;7381761;19;20033;-81
2022/10/18 08:59:44;;;;;;;19.35;8.95;;;21.30;80.70;;;;;;7401435;19;20073;-82
2022/10/18 09:02:23;;;;;;;17.35;9.05;;;21.30;80.60;;;;;;7380797;19;20429;-82
2022/10/18 09:04:59;;;;;;;19.52;9.70;;;21.30;80.50;;;;;;7382268;19;20014;-82
2022/10/18 09:07:50;;;;;;;17.35;9.90;;;21.40;80.50;;;;;;7382588;19;20109;-83
2022/10/18 09:10:32;;;;;;;20.95;8.57;;;21.30;80.20;;;;;;7380163;19;20021;-80
2022/10/18 09:13:30;;;;;;;19.77;9.13;;;21.40;80.10;;;;;;7381348;19;20007;-82
2022/10/18 09:16:04;;;;;;;19.08;9.95;;;21.40;79.90;;;;;;7381766;19;20383;-82
2022/10/18 09:18:47;;;;;;;14.35;8.68;;;21.40;79.90;;;;;;7381347;19;20011;-83
2022/10/18 09:21:21;;;;;;;16.85;8.98;;;21.40;80.10;;;;;;7379511;19;20086;-82
2022/10/18 09:23:56;;;;;;;14.88;9.50;;;21.40;80.00;;;;;;7400878;19;20022;-82
2022/10/18 09:26:26;;;;;;;16.95;8.18;;;21.50;80.10;;;;;;7381052;19;20025;-83
2022/10/18 09:29:07;;;;;;;11.20;8.15;;;21.50;80.00;;;;;;7381341;19;20014;-84
2022/10/18 09:31:47;;;;;;;17.20;8.57;;;21.50;79.80;;;;;;7382736;19;20651;-84
2022/10/18 09:34:26;;;;;;;14.23;7.40;;;21.50;79.60;;;;;;7381729;19;20246;-84
2022/10/18 09:36:56;;;;;;;14.07;8.68;;;21.60;79.70;;;;;;7381420;19;20021;-83
2022/10/18 09:39:29;;;;;;;11.27;7.93;;;21.60;79.50;;;;;;7381910;19;20018;-84
2022/10/18 09:42:01;;;;;;;20.98;8.57;;;21.60;79.70;;;;;;7404266;19;20025;-83
2022/10/18 09:44:35;;;;;;;15.88;8.02;;;21.70;79.80;;;;;;7380058;19;20006;-82
2022/10/18 09:47:12;;;;;;;14.13;7.90;;;21.60;79.80;;;;;;7377771;19;20018;-83
2022/10/18 09:49:45;;;;;;;15.38;7.78;;;21.70;80.00;;;;;;7379055;19;20022;-85
2022/10/18 09:52:20;;;;;;;10.45;7.30;;;21.70;79.80;;;;;;7381483;19;20014;-84
2022/10/18 09:54:55;;;;;;;15.40;8.07;;;21.80;79.70;;;;;;7379204;19;20019;-84
2022/10/18 09:57:28;;;;;;;11.90;6.95;;;21.80;79.80;;;;;;7394712;19;20035;-85
2022/10/18 09:59:56;;;;;;;13.70;7.63;;;21.80;79.40;;;;;;7414250;19;20030;-82
2022/10/18 10:02:27;;;;;;;11.77;7.70;;;21.90;79.40;;;;;;7384573;19;20019;-84
2022/10/18 10:04:56;;;;;;;9.13;6.88;;;21.90;78.90;;;;;;7379294;19;20093;-83
2022/10/18 10:07:30;;;;;;;14.43;7.65;;;21.90;78.10;;;;;;7380100;19;20026;-85
2022/10/18 10:10:01;;;;;;;15.13;8.52;;;21.90;78.00;;;;;;7378236;19;20085;-85
2022/10/18 10:12:36;;;;;;;14.35;8.88;;;21.90;77.70;;;;;;7380096;19;20086;-84
2022/10/18 10:15:19;;;;;;;10.20;7.57;;;21.80;77.70;;;;;;7380348;19;20026;-85
2022/10/18 10:17:56;;;;;;;7.93;6.57;;;21.80;77.90;;;;;;7403244;19;20028;-83
2022/10/18 10:20:27;;;;;;;9.35;6.68;;;21.80;77.90;;;;;;7377059;19;20099;-82
2022/10/18 10:22:56;;;;;;;9.05;6.20;;;21.80;77.60;;;;;;7378852;19;20482;-83
2022/10/18 10:25:32;;;;;;;10.35;7.13;;;21.80;77.60;;;;;;7377979;19;20153;-80
2022/10/18 10:28:05;;;;;;;10.35;7.20;;;21.80;77.40;;;;;;7382001;19;20007;-87
2022/10/18 10:30:36;;;;;;;13.73;9.10;;;21.80;77.00;;;;;;7389549;19;20018;-83
2022/10/18 10:33:08;;;;;;;13.63;9.05;;;21.80;77.00;;;;;;7383905;19;20021;-88
2022/10/18 10:35:38;;;;;;;17.67;10.05;;;21.70;77.30;;;;;;7419971;19;20014;-84
2022/10/18 10:38:08;;;;;;;16.92;10.00;;;21.80;78.50;;;;;;7407047;19;20010;-84
2022/10/18 10:40:44;;;;;;;14.60;10.32;;;21.80;78.00;;;;;;7397010;19;20027;-83
2022/10/18 10:43:22;;;;;;;19.23;10.70;;;21.90;78.40;;;;;;7387473;19;20014;-85
2022/10/18 10:46:03;;;;;;;19.08;10.95;;;21.90;77.60;;;;;;7384436;19;20095;-84
2022/10/18 10:48:40;;;;;;;;;;;22.00;77.80;;;;;;7380413;19;20011;-84
2022/10/18 10:51:12;;;;;;;14.80;9.48;;;22.20;77.80;;;;;;7381636;19;19938;-83
2022/10/18 10:53:49;;;;;;;15.30;8.70;;;22.20;76.90;;;;;;7408426;19;20022;-84
2022/10/18 10:56:25;;;;;;;13.63;6.47;;;22.20;77.10;;;;;;7383607;19;20050;-83
2022/10/18 10:58:55;;;;;;;7.25;4.82;;;22.10;77.00;;;;;;7382813;19;20039;-83
2022/10/18 11:01:30;;;;;;;8.88;4.00;;;22.20;77.40;;;;;;7384030;19;20031;-83
2022/10/18 11:04:26;;;;;;;5.65;3.67;;;22.10;77.10;;;;;;7383128;19;20109;-84
2022/10/18 11:07:10;;;;;;;7.60;3.70;;;22.20;77.40;;;;;;7381208;19;20019;-84
2022/10/18 11:09:49;;;;;;;5.68;3.50;;;22.20;77.50;;;;;;7377064;19;20022;-84
2022/10/18 11:12:28;;;;;;;6.22;3.30;;;22.20;76.30;;;;;;7378590;19;20086;-83
2022/10/18 11:15:09;;;;;;;5.55;3.45;;;22.20;76.50;;;;;;7399333;19;20098;-83
2022/10/18 11:17:44;;;;;;;7.30;3.10;;;22.20;76.90;;;;;;7376607;19;20078;-84
2022/10/18 11:20:23;;;;;;;5.25;3.20;;;22.30;77.10;;;;;;7378563;19;20006;-88
2022/10/18 11:23:01;;;;;;;8.40;2.90;;;22.30;76.90;;;;;;7389948;19;20015;-86
2022/10/18 11:25:47;;;;;;;5.32;3.00;;;22.30;76.80;;;;;;7390234;19;20062;-87
2022/10/18 11:28:32;;;;;;;5.00;2.35;;;22.30;76.30;;;;;;7384085;19;20038;-84
2022/10/18 11:31:13;;;;;;;9.23;2.50;;;22.30;76.20;;;;;;7407831;19;20010;-83
2022/10/18 11:33:59;;;;;;;3.28;2.03;;;22.30;76.30;;;;;;7405844;19;20010;-85
2022/10/18 11:36:39;;;;;;;9.15;2.08;;;22.30;76.40;;;;;;7387702;19;20075;-86
2022/10/18 11:39:16;;;;;;;3.53;2.17;;;22.30;76.60;;;;;;7383036;19;20054;-86
2022/10/18 11:41:54;;;;;;;5.30;1.77;;;22.30;76.60;;;;;;7412439;19;20035;-86
2022/10/18 11:44:31;;;;;;;5.13;2.05;;;22.30;76.40;;;;;;7383892;19;20392;-84
2022/10/18 11:47:08;;;;;;;6.80;2.00;;;22.20;76.20;;;;;;7378419;19;20488;-90
2022/10/18 11:50:02;;;;;;;7.10;2.10;;;22.20;76.10;;;;;;7392082;19;20018;-88
2022/10/18 11:52:47;;;;;;;4.32;1.67;;;22.20;76.60;;;;;;7381096;19;20074;-84
2022/10/18 11:55:35;;;;;;;2.05;1.27;;;22.20;76.50;;;;;;7380643;19;20036;-86
2022/10/18 11:58:16;;;;;;;2.53;1.33;;;22.20;76.50;;;;;;7385063;19;20084;-87
2022/10/18 12:00:51;;;;;;;1.60;1.17;;;22.20;75.00;;;;;;7393485;19;20032;-88
2022/10/18 12:03:50;;;;;;;1.98;1.30;;;22.20;75.20;;;;;;7390609;19;20014;-88
2022/10/18 12:06:23;;;;;;;2.63;1.30;;;22.20;75.80;;;;;;7394326;19;20339;-87
2022/10/18 12:08:58;;;;;;;2.67;1.33;;;22.30;75.50;;;;;;7419355;19;20027;-87
2022/10/18 12:11:32;;;;;;;4.45;1.38;;;22.30;75.20;;;;;;7394403;19;20014;-87
2022/10/18 12:14:03;;;;;;;4.10;1.42;;;22.40;75.50;;;;;;7393487;19;20007;-89
2022/10/18 12:16:37;;;;;;;2.08;1.60;;;22.40;75.30;;;;;;7392228;19;20022;-87
2022/10/18 12:19:14;;;;;;;3.38;1.40;;;22.40;75.50;;;;;;7389687;19;20022;-82
2022/10/18 12:21:43;;;;;;;3.40;1.50;;;22.50;75.70;;;;;;7378483;19;20022;-83
2022/10/18 12:24:19;;;;;;;3.60;1.30;;;22.50;75.30;;;;;;7380709;19;20015;-83
2022/10/18 12:29:37;;;;;;;2.58;1.30;;;22.60;74.80;;;;;;7325411;19;20927;-88
2022/10/18 12:32:10;;;;;;;2.30;1.60;;;22.60;75.60;;;;;;7381971;19;20022;-86
2022/10/18 12:34:44;;;;;;;2.45;1.30;;;22.60;74.80;;;;;;7405946;19;20023;-82
2022/10/18 12:37:28;;;;;;;2.58;1.55;;;22.70;75.30;;;;;;7413093;19;20013;-84
2022/10/18 12:40:03;;;;;;;2.13;1.30;;;22.70;75.00;;;;;;7387964;19;20023;-84
2022/10/18 12:42:35;;;;;;;3.50;1.10;;;22.70;74.70;;;;;;7382592;19;20158;-85
2022/10/18 12:45:04;;;;;;;;;;;22.70;74.30;;;;;;7385653;19;20082;-85
2022/10/18 12:47:34;;;;;;;3.90;1.40;;;22.80;74.50;;;;;;7415879;19;19919;-86
2022/10/18 12:50:07;;;;;;;4.20;1.30;;;22.70;73.90;;;;;;7400528;19;20047;-87
2022/10/18 12:52:36;;;;;;;2.53;1.30;;;22.70;74.20;;;;;;7404738;19;20014;-88
2022/10/18 12:55:36;;;;;;;2.60;1.42;;;22.70;74.10;;;;;;7394211;19;20609;-86
2022/10/18 12:58:22;;;;;;;6.38;1.40;;;22.50;74.10;;;;;;7388135;19;20043;-86
2022/10/18 13:01:00;;;;;;;6.50;1.38;;;22.50;74.30;;;;;;7394413;19;20014;-86
2022/10/18 13:03:55;;;;;;;1.95;1.40;;;22.40;74.90;;;;;;7394785;19;20015;-87
2022/10/18 13:06:25;;;;;;;3.17;1.50;;;22.40;75.20;;;;;;7392337;19;20034;-87
2022/10/18 13:09:18;;;;;;;5.50;1.33;;;22.40;75.20;;;;;;7414348;19;20026;-88